sensor_id;sensor_type;location;lat;lon;timestamp;temperature;humidity
59025;DHT22;44806;48.008;13.666;2023-02-17T00:00:31;3.00;99.90
59025;DHT22;44806;48.008;13.666;2023-02-17T00:02:59;3.00;99.90
59025;DHT22;44806;48.008;13.666;2023-02-17T00:05:26;3.00;99.90
59025;DHT22;44806;48.008;13.666;2023-02-17T00:07:53;3.00;99.90
59025;DHT22;44806;48.008;13.666;2023-02-17T00:10:20;3.10;99.90
59025;DHT22;44806;48.008;13.666;2023-02-17T00:12:47;3.10;99.90
59025;DHT22;44806;48.008;13.666;2023-02-17T00:15:14;3.10;99.90
59025;DHT22;44806;48.008;13.666;2023-02-17T00:17:40;3.10;99.90
59025;DHT22;44806;48.008;13.666;2023-02-17T00:20:09;3.10;99.90
59025;DHT22;44806;48.008;13.666;2023-02-17T00:22:36;3.20;99.90
59025;DHT22;44806;48.008;13.666;2023-02-17T00:25:03;3.20;99.90
59025;DHT22;44806;48.008;13.666;2023-02-17T00:27:30;3.20;99.90
59025;DHT22;44806;48.008;13.666;2023-02-17T00:29:59;3.20;99.90
59025;DHT22;44806;48.008;13.666;2023-02-17T00:32:26;3.20;99.90
59025;DHT22;44806;48.008;13.666;2023-02-17T00:34:53;3.30;99.90
59025;DHT22;44806;48.008;13.666;2023-02-17T00:37:22;3.30;99.90
59025;DHT22;44806;48.008;13.666;2023-02-17T00:39:49;3.30;99.90
59025;DHT22;44806;48.008;13.666;2023-02-17T00:42:16;3.30;99.90
59025;DHT22;44806;48.008;13.666;2023-02-17T00:44:45;3.30;99.90
59025;DHT22;44806;48.008;13.666;2023-02-17T00:47:12;3.30;99.90
59025;DHT22;44806;48.008;13.666;2023-02-17T00:49:39;3.30;99.90
59025;DHT22;44806;48.008;13.666;2023-02-17T00:52:05;3.30;99.90
59025;DHT22;44806;48.008;13.666;2023-02-17T00:54:34;3.30;99.90
59025;DHT22;44806;48.008;13.666;2023-02-17T00:57:00;3.30;99.90
59025;DHT22;44806;48.008;13.666;2023-02-17T00:59:27;3.50;99.90
59025;DHT22;44806;48.008;13.666;2023-02-17T01:01:54;3.40;99.90
59025;DHT22;44806;48.008;13.666;2023-02-17T01:04:21;3.40;99.90
59025;DHT22;44806;48.008;13.666;2023-02-17T01:06:48;3.50;99.90
59025;DHT22;44806;48.008;13.666;2023-02-17T01:09:15;3.50;99.90
59025;DHT22;44806;48.008;13.666;2023-02-17T01:11:43;3.50;99.90
59025;DHT22;44806;48.008;13.666;2023-02-17T01:14:11;3.50;99.90
59025;DHT22;44806;48.008;13.666;2023-02-17T01:16:38;3.60;99.90
59025;DHT22;44806;48.008;13.666;2023-02-17T01:19:06;3.60;99.90
59025;DHT22;44806;48.008;13.666;2023-02-17T01:21:33;3.60;99.90
59025;DHT22;44806;48.008;13.666;2023-02-17T01:24:01;3.60;99.90
59025;DHT22;44806;48.008;13.666;2023-02-17T01:26:29;3.60;99.90
59025;DHT22;44806;48.008;13.666;2023-02-17T01:28:57;3.60;99.90
59025;DHT22;44806;48.008;13.666;2023-02-17T01:31:24;3.70;99.90
59025;DHT22;44806;48.008;13.666;2023-02-17T01:33:52;3.70;99.90
59025;DHT22;44806;48.008;13.666;2023-02-17T01:36:19;3.70;99.90
59025;DHT22;44806;48.008;13.666;2023-02-17T01:38:46;3.70;99.90
59025;DHT22;44806;48.008;13.666;2023-02-17T01:41:14;3.70;99.90
59025;DHT22;44806;48.008;13.666;2023-02-17T01:43:41;3.70;99.90
59025;DHT22;44806;48.008;13.666;2023-02-17T01:46:09;3.70;99.90
59025;DHT22;44806;48.008;13.666;2023-02-17T01:48:37;3.80;99.90
59025;DHT22;44806;48.008;13.666;2023-02-17T01:51:05;3.80;99.90
59025;DHT22;44806;48.008;13.666;2023-02-17T01:53:34;3.80;99.90
59025;DHT22;44806;48.008;13.666;2023-02-17T01:56:02;3.80;99.90
59025;DHT22;44806;48.008;13.666;2023-02-17T01:58:30;3.80;99.90
59025;DHT22;44806;48.008;13.666;2023-02-17T02:00:57;3.90;99.90
59025;DHT22;44806;48.008;13.666;2023-02-17T02:03:26;3.80;99.90
59025;DHT22;44806;48.008;13.666;2023-02-17T02:05:55;3.90;99.90
59025;DHT22;44806;48.008;13.666;2023-02-17T02:08:22;3.90;99.90
59025;DHT22;44806;48.008;13.666;2023-02-17T02:10:49;3.90;99.90
59025;DHT22;44806;48.008;13.666;2023-02-17T02:13:16;3.90;99.90
59025;DHT22;44806;48.008;13.666;2023-02-17T02:15:44;3.90;99.90
59025;DHT22;44806;48.008;13.666;2023-02-17T02:18:30;3.90;99.90
59025;DHT22;44806;48.008;13.666;2023-02-17T02:21:10;3.80;99.90
59025;DHT22;44806;48.008;13.666;2023-02-17T02:23:48;3.80;99.90
59025;DHT22;44806;48.008;13.666;2023-02-17T02:29:03;3.80;99.90
59025;DHT22;44806;48.008;13.666;2023-02-17T02:31:41;3.80;99.90
59025;DHT22;44806;48.008;13.666;2023-02-17T02:34:12;3.80;99.90
59025;DHT22;44806;48.008;13.666;2023-02-17T02:36:42;3.80;99.90
59025;DHT22;44806;48.008;13.666;2023-02-17T02:39:11;3.80;99.90
59025;DHT22;44806;48.008;13.666;2023-02-17T02:41:39;3.80;99.90
59025;DHT22;44806;48.008;13.666;2023-02-17T02:44:08;3.90;99.90
59025;DHT22;44806;48.008;13.666;2023-02-17T02:46:35;3.90;99.90
59025;DHT22;44806;48.008;13.666;2023-02-17T02:49:01;3.90;99.90
59025;DHT22;44806;48.008;13.666;2023-02-17T02:51:34;3.90;99.90
59025;DHT22;44806;48.008;13.666;2023-02-17T02:54:15;3.90;99.90
59025;DHT22;44806;48.008;13.666;2023-02-17T02:56:48;3.90;99.90
59025;DHT22;44806;48.008;13.666;2023-02-17T02:59:19;4.00;99.90
59025;DHT22;44806;48.008;13.666;2023-02-17T03:01:49;4.00;99.90
59025;DHT22;44806;48.008;13.666;2023-02-17T03:04:18;4.00;99.90
59025;DHT22;44806;48.008;13.666;2023-02-17T03:06:52;4.00;99.90
59025;DHT22;44806;48.008;13.666;2023-02-17T03:09:23;4.10;99.90
59025;DHT22;44806;48.008;13.666;2023-02-17T03:11:50;4.10;99.90
59025;DHT22;44806;48.008;13.666;2023-02-17T03:14:19;4.10;99.90
59025;DHT22;44806;48.008;13.666;2023-02-17T03:16:47;4.10;99.90
59025;DHT22;44806;48.008;13.666;2023-02-17T03:19:14;4.20;99.90
59025;DHT22;44806;48.008;13.666;2023-02-17T03:21:44;4.20;99.90
59025;DHT22;44806;48.008;13.666;2023-02-17T03:24:14;4.20;99.90
59025;DHT22;44806;48.008;13.666;2023-02-17T03:26:41;4.20;99.90
59025;DHT22;44806;48.008;13.666;2023-02-17T03:29:08;4.20;99.90
59025;DHT22;44806;48.008;13.666;2023-02-17T03:31:35;4.30;99.90
59025;DHT22;44806;48.008;13.666;2023-02-17T03:34:02;4.30;99.90
59025;DHT22;44806;48.008;13.666;2023-02-17T03:36:29;4.30;99.90
59025;DHT22;44806;48.008;13.666;2023-02-17T03:38:56;4.30;99.90
59025;DHT22;44806;48.008;13.666;2023-02-17T03:41:24;4.30;99.90
59025;DHT22;44806;48.008;13.666;2023-02-17T03:43:51;4.30;99.90
59025;DHT22;44806;48.008;13.666;2023-02-17T03:46:18;4.40;99.90
59025;DHT22;44806;48.008;13.666;2023-02-17T03:48:45;4.40;99.90
59025;DHT22;44806;48.008;13.666;2023-02-17T03:51:13;4.40;99.90
59025;DHT22;44806;48.008;13.666;2023-02-17T03:53:40;4.40;99.90
59025;DHT22;44806;48.008;13.666;2023-02-17T03:56:07;4.40;99.90
59025;DHT22;44806;48.008;13.666;2023-02-17T03:58:38;4.50;99.90
59025;DHT22;44806;48.008;13.666;2023-02-17T04:01:05;4.50;99.90
59025;DHT22;44806;48.008;13.666;2023-02-17T04:03:33;4.50;99.90
59025;DHT22;44806;48.008;13.666;2023-02-17T04:06:00;4.50;99.90
59025;DHT22;44806;48.008;13.666;2023-02-17T04:08:27;4.50;99.90
59025;DHT22;44806;48.008;13.666;2023-02-17T04:10:54;4.50;99.90
59025;DHT22;44806;48.008;13.666;2023-02-17T04:13:21;4.50;99.90
59025;DHT22;44806;48.008;13.666;2023-02-17T04:15:50;4.50;99.90
59025;DHT22;44806;48.008;13.666;2023-02-17T04:18:17;4.50;99.90
59025;DHT22;44806;48.008;13.666;2023-02-17T04:20:45;4.50;99.90
59025;DHT22;44806;48.008;13.666;2023-02-17T04:23:13;4.40;99.90
59025;DHT22;44806;48.008;13.666;2023-02-17T04:25:40;4.40;99.90
59025;DHT22;44806;48.008;13.666;2023-02-17T04:28:07;4.50;99.90
59025;DHT22;44806;48.008;13.666;2023-02-17T04:30:33;4.50;99.90
59025;DHT22;44806;48.008;13.666;2023-02-17T04:33:02;4.50;99.90
59025;DHT22;44806;48.008;13.666;2023-02-17T04:35:29;4.50;99.90
59025;DHT22;44806;48.008;13.666;2023-02-17T04:37:56;4.50;99.90
59025;DHT22;44806;48.008;13.666;2023-02-17T04:40:23;4.50;99.90
59025;DHT22;44806;48.008;13.666;2023-02-17T04:42:50;4.50;99.90
59025;DHT22;44806;48.008;13.666;2023-02-17T04:45:19;4.50;99.90
59025;DHT22;44806;48.008;13.666;2023-02-17T04:47:46;4.60;99.90
59025;DHT22;44806;48.008;13.666;2023-02-17T04:50:14;4.60;99.90
59025;DHT22;44806;48.008;13.666;2023-02-17T04:52:41;4.60;99.90
59025;DHT22;44806;48.008;13.666;2023-02-17T04:55:08;4.70;99.90
59025;DHT22;44806;48.008;13.666;2023-02-17T04:57:37;4.70;99.90
59025;DHT22;44806;48.008;13.666;2023-02-17T05:00:04;4.70;99.90
59025;DHT22;44806;48.008;13.666;2023-02-17T05:02:32;4.70;99.90
59025;DHT22;44806;48.008;13.666;2023-02-17T05:04:59;4.70;99.90
59025;DHT22;44806;48.008;13.666;2023-02-17T05:07:27;4.70;99.90
59025;DHT22;44806;48.008;13.666;2023-02-17T05:09:54;4.80;99.90
59025;DHT22;44806;48.008;13.666;2023-02-17T05:12:21;4.80;99.90
59025;DHT22;44806;48.008;13.666;2023-02-17T05:14:49;4.90;99.90
59025;DHT22;44806;48.008;13.666;2023-02-17T05:17:15;4.90;99.90
59025;DHT22;44806;48.008;13.666;2023-02-17T05:19:42;5.00;99.90
59025;DHT22;44806;48.008;13.666;2023-02-17T05:22:10;5.00;99.90
59025;DHT22;44806;48.008;13.666;2023-02-17T05:24:38;5.10;99.90
59025;DHT22;44806;48.008;13.666;2023-02-17T05:27:05;5.10;99.90
59025;DHT22;44806;48.008;13.666;2023-02-17T05:29:32;5.10;99.90
59025;DHT22;44806;48.008;13.666;2023-02-17T05:31:59;5.20;99.90
59025;DHT22;44806;48.008;13.666;2023-02-17T05:34:26;5.30;99.90
59025;DHT22;44806;48.008;13.666;2023-02-17T05:36:54;5.20;99.90
59025;DHT22;44806;48.008;13.666;2023-02-17T05:39:21;5.20;99.90
59025;DHT22;44806;48.008;13.666;2023-02-17T05:41:50;5.20;99.90
59025;DHT22;44806;48.008;13.666;2023-02-17T05:44:16;5.30;99.90
59025;DHT22;44806;48.008;13.666;2023-02-17T05:46:43;5.20;99.90
59025;DHT22;44806;48.008;13.666;2023-02-17T05:49:10;5.30;99.90
59025;DHT22;44806;48.008;13.666;2023-02-17T05:51:37;5.30;99.90
59025;DHT22;44806;48.008;13.666;2023-02-17T05:54:04;5.30;99.90
59025;DHT22;44806;48.008;13.666;2023-02-17T05:56:31;5.30;99.90
59025;DHT22;44806;48.008;13.666;2023-02-17T05:58:59;5.30;99.90
59025;DHT22;44806;48.008;13.666;2023-02-17T06:01:26;5.30;99.90
59025;DHT22;44806;48.008;13.666;2023-02-17T06:03:53;5.30;99.90
59025;DHT22;44806;48.008;13.666;2023-02-17T06:06:25;5.40;99.90
59025;DHT22;44806;48.008;13.666;2023-02-17T06:08:55;5.40;99.90
59025;DHT22;44806;48.008;13.666;2023-02-17T06:11:22;5.40;99.90
59025;DHT22;44806;48.008;13.666;2023-02-17T06:13:49;5.40;99.90
59025;DHT22;44806;48.008;13.666;2023-02-17T06:16:17;5.40;99.90
59025;DHT22;44806;48.008;13.666;2023-02-17T06:18:44;5.30;99.90
59025;DHT22;44806;48.008;13.666;2023-02-17T06:21:12;5.50;99.90
59025;DHT22;44806;48.008;13.666;2023-02-17T06:23:41;5.50;99.90
59025;DHT22;44806;48.008;13.666;2023-02-17T06:26:08;5.50;99.90
59025;DHT22;44806;48.008;13.666;2023-02-17T06:28:35;5.60;99.90
59025;DHT22;44806;48.008;13.666;2023-02-17T06:31:02;5.50;99.90
59025;DHT22;44806;48.008;13.666;2023-02-17T06:33:31;5.50;99.90
59025;DHT22;44806;48.008;13.666;2023-02-17T06:35:58;5.60;99.90
59025;DHT22;44806;48.008;13.666;2023-02-17T06:38:24;5.70;99.90
59025;DHT22;44806;48.008;13.666;2023-02-17T06:40:52;5.70;99.90
59025;DHT22;44806;48.008;13.666;2023-02-17T06:43:19;5.80;99.90
59025;DHT22;44806;48.008;13.666;2023-02-17T06:45:46;5.90;99.90
59025;DHT22;44806;48.008;13.666;2023-02-17T06:48:13;5.90;99.90
59025;DHT22;44806;48.008;13.666;2023-02-17T06:50:42;5.90;99.90
59025;DHT22;44806;48.008;13.666;2023-02-17T06:53:10;6.00;99.90
59025;DHT22;44806;48.008;13.666;2023-02-17T06:55:37;6.10;99.90
59025;DHT22;44806;48.008;13.666;2023-02-17T06:58:04;6.20;99.90
59025;DHT22;44806;48.008;13.666;2023-02-17T07:00:31;6.20;99.90
59025;DHT22;44806;48.008;13.666;2023-02-17T07:02:58;6.30;99.90
59025;DHT22;44806;48.008;13.666;2023-02-17T07:05:25;6.20;99.90
59025;DHT22;44806;48.008;13.666;2023-02-17T07:07:55;6.30;99.90
59025;DHT22;44806;48.008;13.666;2023-02-17T07:10:23;6.30;99.90
59025;DHT22;44806;48.008;13.666;2023-02-17T07:12:50;6.40;99.90
59025;DHT22;44806;48.008;13.666;2023-02-17T07:15:17;6.40;99.90
59025;DHT22;44806;48.008;13.666;2023-02-17T07:17:44;6.50;99.90
59025;DHT22;44806;48.008;13.666;2023-02-17T07:20:11;6.50;99.90
59025;DHT22;44806;48.008;13.666;2023-02-17T07:22:38;6.60;99.90
59025;DHT22;44806;48.008;13.666;2023-02-17T07:25:09;6.70;99.90
59025;DHT22;44806;48.008;13.666;2023-02-17T07:27:36;6.70;99.90
59025;DHT22;44806;48.008;13.666;2023-02-17T07:30:04;6.70;99.90
59025;DHT22;44806;48.008;13.666;2023-02-17T07:32:34;6.80;99.90
59025;DHT22;44806;48.008;13.666;2023-02-17T07:35:01;6.80;99.90
59025;DHT22;44806;48.008;13.666;2023-02-17T07:37:28;6.90;99.90
59025;DHT22;44806;48.008;13.666;2023-02-17T07:39:55;6.90;99.90
59025;DHT22;44806;48.008;13.666;2023-02-17T07:42:25;7.00;99.90
59025;DHT22;44806;48.008;13.666;2023-02-17T07:44:52;7.00;99.90
59025;DHT22;44806;48.008;13.666;2023-02-17T07:47:19;7.10;99.90
59025;DHT22;44806;48.008;13.666;2023-02-17T07:49:46;7.10;99.90
59025;DHT22;44806;48.008;13.666;2023-02-17T07:52:15;7.20;99.90
59025;DHT22;44806;48.008;13.666;2023-02-17T07:54:42;7.20;99.90
59025;DHT22;44806;48.008;13.666;2023-02-17T07:57:09;7.30;99.90
59025;DHT22;44806;48.008;13.666;2023-02-17T07:59:37;7.30;99.90
59025;DHT22;44806;48.008;13.666;2023-02-17T08:02:04;7.30;99.90
59025;DHT22;44806;48.008;13.666;2023-02-17T08:04:31;7.40;99.90
59025;DHT22;44806;48.008;13.666;2023-02-17T08:06:58;7.40;99.90
59025;DHT22;44806;48.008;13.666;2023-02-17T08:09:25;7.40;99.90
59025;DHT22;44806;48.008;13.666;2023-02-17T08:12:19;7.40;99.90
59025;DHT22;44806;48.008;13.666;2023-02-17T08:15:05;7.40;99.90
59025;DHT22;44806;48.008;13.666;2023-02-17T08:17:38;7.50;99.90
59025;DHT22;44806;48.008;13.666;2023-02-17T08:20:07;7.50;99.90
59025;DHT22;44806;48.008;13.666;2023-02-17T08:22:35;7.50;99.90
59025;DHT22;44806;48.008;13.666;2023-02-17T08:25:02;7.50;99.90
59025;DHT22;44806;48.008;13.666;2023-02-17T08:27:30;7.70;99.30
59025;DHT22;44806;48.008;13.666;2023-02-17T08:29:57;7.80;99.00
59025;DHT22;44806;48.008;13.666;2023-02-17T08:32:25;8.00;97.30
59025;DHT22;44806;48.008;13.666;2023-02-17T08:34:55;8.20;97.60
59025;DHT22;44806;48.008;13.666;2023-02-17T08:37:22;8.30;95.80
59025;DHT22;44806;48.008;13.666;2023-02-17T08:39:49;8.50;94.70
59025;DHT22;44806;48.008;13.666;2023-02-17T08:42:16;8.70;92.90
59025;DHT22;44806;48.008;13.666;2023-02-17T08:44:44;8.80;94.20
59025;DHT22;44806;48.008;13.666;2023-02-17T08:47:11;9.10;93.30
59025;DHT22;44806;48.008;13.666;2023-02-17T08:49:39;9.30;92.50
59025;DHT22;44806;48.008;13.666;2023-02-17T08:52:09;9.60;92.30
59025;DHT22;44806;48.008;13.666;2023-02-17T08:54:36;9.70;92.20
59025;DHT22;44806;48.008;13.666;2023-02-17T08:57:03;9.80;90.00
59025;DHT22;44806;48.008;13.666;2023-02-17T08:59:30;9.90;90.00
59025;DHT22;44806;48.008;13.666;2023-02-17T09:02:00;10.00;89.00
59025;DHT22;44806;48.008;13.666;2023-02-17T09:04:32;10.00;89.00
59025;DHT22;44806;48.008;13.666;2023-02-17T09:07:00;10.10;90.10
59025;DHT22;44806;48.008;13.666;2023-02-17T09:09:27;10.10;89.10
59025;DHT22;44806;48.008;13.666;2023-02-17T09:11:54;10.30;85.50
59025;DHT22;44806;48.008;13.666;2023-02-17T09:14:22;10.50;85.50
59025;DHT22;44806;48.008;13.666;2023-02-17T09:16:49;10.60;85.00
59025;DHT22;44806;48.008;13.666;2023-02-17T09:19:16;10.70;84.10
59025;DHT22;44806;48.008;13.666;2023-02-17T09:21:43;10.80;83.90
59025;DHT22;44806;48.008;13.666;2023-02-17T09:24:11;10.90;83.90
59025;DHT22;44806;48.008;13.666;2023-02-17T09:26:38;10.90;84.60
59025;DHT22;44806;48.008;13.666;2023-02-17T09:29:05;10.90;85.90
59025;DHT22;44806;48.008;13.666;2023-02-17T09:31:32;10.90;84.40
59025;DHT22;44806;48.008;13.666;2023-02-17T09:34:00;10.90;84.30
59025;DHT22;44806;48.008;13.666;2023-02-17T09:36:27;10.90;85.80
59025;DHT22;44806;48.008;13.666;2023-02-17T09:38:58;11.00;88.20
59025;DHT22;44806;48.008;13.666;2023-02-17T09:41:35;11.00;88.40
59025;DHT22;44806;48.008;13.666;2023-02-17T09:44:05;11.00;90.00
59025;DHT22;44806;48.008;13.666;2023-02-17T09:46:38;11.00;90.90
59025;DHT22;44806;48.008;13.666;2023-02-17T09:49:07;11.00;90.30
59025;DHT22;44806;48.008;13.666;2023-02-17T09:51:38;11.00;91.30
59025;DHT22;44806;48.008;13.666;2023-02-17T09:54:14;11.00;91.50
59025;DHT22;44806;48.008;13.666;2023-02-17T09:56:44;11.00;91.60
59025;DHT22;44806;48.008;13.666;2023-02-17T09:59:14;11.10;92.20
59025;DHT22;44806;48.008;13.666;2023-02-17T10:01:42;11.10;92.10
59025;DHT22;44806;48.008;13.666;2023-02-17T10:04:11;11.10;91.00
59025;DHT22;44806;48.008;13.666;2023-02-17T10:06:43;11.10;91.50
59025;DHT22;44806;48.008;13.666;2023-02-17T10:09:11;11.10;92.10
59025;DHT22;44806;48.008;13.666;2023-02-17T10:11:47;11.10;93.00
59025;DHT22;44806;48.008;13.666;2023-02-17T10:14:20;11.00;93.60
59025;DHT22;44806;48.008;13.666;2023-02-17T10:16:50;11.00;94.20
59025;DHT22;44806;48.008;13.666;2023-02-17T10:19:23;10.90;94.40
59025;DHT22;44806;48.008;13.666;2023-02-17T10:21:55;10.90;94.10
59025;DHT22;44806;48.008;13.666;2023-02-17T10:24:23;10.80;95.10
59025;DHT22;44806;48.008;13.666;2023-02-17T10:26:58;10.80;95.00
59025;DHT22;44806;48.008;13.666;2023-02-17T10:29:30;10.80;95.70
59025;DHT22;44806;48.008;13.666;2023-02-17T10:32:03;10.80;95.50
59025;DHT22;44806;48.008;13.666;2023-02-17T10:34:33;10.80;95.50
59025;DHT22;44806;48.008;13.666;2023-02-17T10:37:01;10.80;96.10
59025;DHT22;44806;48.008;13.666;2023-02-17T10:39:37;10.80;95.30
59025;DHT22;44806;48.008;13.666;2023-02-17T10:42:09;10.90;95.30
59025;DHT22;44806;48.008;13.666;2023-02-17T10:44:40;11.00;95.70
59025;DHT22;44806;48.008;13.666;2023-02-17T10:47:08;11.00;95.80
59025;DHT22;44806;48.008;13.666;2023-02-17T10:49:38;11.00;95.10
59025;DHT22;44806;48.008;13.666;2023-02-17T10:52:09;11.10;95.50
59025;DHT22;44806;48.008;13.666;2023-02-17T10:54:38;11.20;95.80
59025;DHT22;44806;48.008;13.666;2023-02-17T10:57:09;11.20;96.20
59025;DHT22;44806;48.008;13.666;2023-02-17T10:59:38;11.20;97.70
59025;DHT22;44806;48.008;13.666;2023-02-17T11:02:12;11.00;98.60
59025;DHT22;44806;48.008;13.666;2023-02-17T11:04:41;11.00;98.40
59025;DHT22;44806;48.008;13.666;2023-02-17T11:07:09;11.00;98.80
59025;DHT22;44806;48.008;13.666;2023-02-17T11:09:38;11.20;99.40
59025;DHT22;44806;48.008;13.666;2023-02-17T11:12:12;11.40;98.80
59025;DHT22;44806;48.008;13.666;2023-02-17T11:14:43;11.40;98.90
59025;DHT22;44806;48.008;13.666;2023-02-17T11:17:14;11.40;98.80
59025;DHT22;44806;48.008;13.666;2023-02-17T11:19:42;11.50;98.70
59025;DHT22;44806;48.008;13.666;2023-02-17T11:22:27;11.60;98.50
59025;DHT22;44806;48.008;13.666;2023-02-17T11:24:57;11.60;99.10
59025;DHT22;44806;48.008;13.666;2023-02-17T11:27:26;11.80;98.50
59025;DHT22;44806;48.008;13.666;2023-02-17T11:29:53;11.80;98.30
59025;DHT22;44806;48.008;13.666;2023-02-17T11:32:30;11.80;98.70
59025;DHT22;44806;48.008;13.666;2023-02-17T11:34:57;11.80;99.20
59025;DHT22;44806;48.008;13.666;2023-02-17T11:37:29;11.80;98.90
59025;DHT22;44806;48.008;13.666;2023-02-17T11:39:56;11.80;99.80
59025;DHT22;44806;48.008;13.666;2023-02-17T11:42:26;11.70;99.90
59025;DHT22;44806;48.008;13.666;2023-02-17T11:44:54;11.60;99.90
59025;DHT22;44806;48.008;13.666;2023-02-17T11:47:25;11.60;99.90
59025;DHT22;44806;48.008;13.666;2023-02-17T11:49:58;11.60;99.90
59025;DHT22;44806;48.008;13.666;2023-02-17T11:52:42;11.70;99.90
59025;DHT22;44806;48.008;13.666;2023-02-17T11:55:20;11.80;99.90
59025;DHT22;44806;48.008;13.666;2023-02-17T11:57:57;11.90;99.90
59025;DHT22;44806;48.008;13.666;2023-02-17T12:00:29;12.00;99.90
59025;DHT22;44806;48.008;13.666;2023-02-17T12:05:52;12.00;99.90
59025;DHT22;44806;48.008;13.666;2023-02-17T12:08:25;12.00;99.90
59025;DHT22;44806;48.008;13.666;2023-02-17T12:11:00;11.90;99.90
59025;DHT22;44806;48.008;13.666;2023-02-17T12:13:38;11.90;99.90
59025;DHT22;44806;48.008;13.666;2023-02-17T12:16:20;11.90;99.90
59025;DHT22;44806;48.008;13.666;2023-02-17T12:18:53;11.80;99.90
59025;DHT22;44806;48.008;13.666;2023-02-17T12:21:29;11.80;99.90
59025;DHT22;44806;48.008;13.666;2023-02-17T12:24:06;11.80;99.90
59025;DHT22;44806;48.008;13.666;2023-02-17T12:26:36;11.80;99.90
59025;DHT22;44806;48.008;13.666;2023-02-17T12:29:12;11.80;99.90
59025;DHT22;44806;48.008;13.666;2023-02-17T12:31:49;11.80;99.90
59025;DHT22;44806;48.008;13.666;2023-02-17T12:34:20;11.80;99.90
59025;DHT22;44806;48.008;13.666;2023-02-17T12:36:50;11.80;99.90
59025;DHT22;44806;48.008;13.666;2023-02-17T12:39:20;11.80;99.90
59025;DHT22;44806;48.008;13.666;2023-02-17T12:41:49;11.90;99.90
59025;DHT22;44806;48.008;13.666;2023-02-17T12:44:19;11.90;99.40
59025;DHT22;44806;48.008;13.666;2023-02-17T12:46:47;11.90;99.80
59025;DHT22;44806;48.008;13.666;2023-02-17T12:49:16;12.00;99.70
59025;DHT22;44806;48.008;13.666;2023-02-17T12:51:48;12.10;99.40
59025;DHT22;44806;48.008;13.666;2023-02-17T12:54:23;12.10;98.80
59025;DHT22;44806;48.008;13.666;2023-02-17T12:56:58;12.20;98.70
59025;DHT22;44806;48.008;13.666;2023-02-17T12:59:31;12.20;98.40
59025;DHT22;44806;48.008;13.666;2023-02-17T13:01:59;12.30;98.20
59025;DHT22;44806;48.008;13.666;2023-02-17T13:04:27;12.40;98.30
59025;DHT22;44806;48.008;13.666;2023-02-17T13:07:07;12.50;98.00
59025;DHT22;44806;48.008;13.666;2023-02-17T13:09:35;12.50;97.40
59025;DHT22;44806;48.008;13.666;2023-02-17T13:12:13;12.60;97.50
59025;DHT22;44806;48.008;13.666;2023-02-17T13:14:46;12.70;96.10
59025;DHT22;44806;48.008;13.666;2023-02-17T13:17:23;12.80;95.70
59025;DHT22;44806;48.008;13.666;2023-02-17T13:22:42;13.00;94.00
59025;DHT22;44806;48.008;13.666;2023-02-17T13:25:12;13.20;93.60
59025;DHT22;44806;48.008;13.666;2023-02-17T13:27:40;13.30;93.20
59025;DHT22;44806;48.008;13.666;2023-02-17T13:33:01;13.30;92.60
59025;DHT22;44806;48.008;13.666;2023-02-17T13:35:30;13.40;92.40
59025;DHT22;44806;48.008;13.666;2023-02-17T13:37:57;13.50;92.60
59025;DHT22;44806;48.008;13.666;2023-02-17T13:40:30;13.50;92.40
59025;DHT22;44806;48.008;13.666;2023-02-17T13:43:08;13.50;92.30
59025;DHT22;44806;48.008;13.666;2023-02-17T13:45:38;13.60;92.30
59025;DHT22;44806;48.008;13.666;2023-02-17T13:51:02;13.60;92.50
59025;DHT22;44806;48.008;13.666;2023-02-17T13:53:30;13.60;92.30
59025;DHT22;44806;48.008;13.666;2023-02-17T13:55:59;13.70;92.10
59025;DHT22;44806;48.008;13.666;2023-02-17T13:58:27;13.70;91.80
59025;DHT22;44806;48.008;13.666;2023-02-17T14:00:55;13.80;91.40
59025;DHT22;44806;48.008;13.666;2023-02-17T14:03:23;13.80;91.50
59025;DHT22;44806;48.008;13.666;2023-02-17T14:05:51;13.80;91.20
59025;DHT22;44806;48.008;13.666;2023-02-17T14:08:22;13.80;90.80
59025;DHT22;44806;48.008;13.666;2023-02-17T14:10:51;13.90;91.10
59025;DHT22;44806;48.008;13.666;2023-02-17T14:13:18;13.80;92.00
59025;DHT22;44806;48.008;13.666;2023-02-17T14:15:51;13.80;92.40
59025;DHT22;44806;48.008;13.666;2023-02-17T14:18:29;13.70;94.10
59025;DHT22;44806;48.008;13.666;2023-02-17T14:21:00;13.70;93.70
59025;DHT22;44806;48.008;13.666;2023-02-17T14:23:38;13.70;93.80
59025;DHT22;44806;48.008;13.666;2023-02-17T14:26:09;13.60;94.20
59025;DHT22;44806;48.008;13.666;2023-02-17T14:28:39;13.60;93.50
59025;DHT22;44806;48.008;13.666;2023-02-17T14:31:07;13.60;93.80
59025;DHT22;44806;48.008;13.666;2023-02-17T14:33:34;13.60;94.10
59025;DHT22;44806;48.008;13.666;2023-02-17T14:36:05;13.50;93.90
59025;DHT22;44806;48.008;13.666;2023-02-17T14:38:38;13.50;93.70
59025;DHT22;44806;48.008;13.666;2023-02-17T14:41:06;13.50;94.30
59025;DHT22;44806;48.008;13.666;2023-02-17T14:43:33;13.60;94.10
59025;DHT22;44806;48.008;13.666;2023-02-17T14:46:02;13.60;93.40
59025;DHT22;44806;48.008;13.666;2023-02-17T14:48:29;13.60;93.70
59025;DHT22;44806;48.008;13.666;2023-02-17T14:50:56;13.60;93.20
59025;DHT22;44806;48.008;13.666;2023-02-17T14:53:24;13.70;93.70
59025;DHT22;44806;48.008;13.666;2023-02-17T14:55:54;13.60;93.50
59025;DHT22;44806;48.008;13.666;2023-02-17T14:58:26;13.60;93.40
59025;DHT22;44806;48.008;13.666;2023-02-17T15:00:53;13.60;93.40
59025;DHT22;44806;48.008;13.666;2023-02-17T15:03:26;13.50;93.60
59025;DHT22;44806;48.008;13.666;2023-02-17T15:05:55;13.50;93.50
59025;DHT22;44806;48.008;13.666;2023-02-17T15:08:27;13.50;93.60
59025;DHT22;44806;48.008;13.666;2023-02-17T15:10:57;13.50;93.70
59025;DHT22;44806;48.008;13.666;2023-02-17T15:13:24;13.50;93.80
59025;DHT22;44806;48.008;13.666;2023-02-17T15:15:54;13.50;93.80
59025;DHT22;44806;48.008;13.666;2023-02-17T15:18:22;13.50;93.80
59025;DHT22;44806;48.008;13.666;2023-02-17T15:20:49;13.60;94.00
59025;DHT22;44806;48.008;13.666;2023-02-17T15:23:20;13.50;94.00
59025;DHT22;44806;48.008;13.666;2023-02-17T15:25:50;13.50;93.80
59025;DHT22;44806;48.008;13.666;2023-02-17T15:28:19;13.50;93.70
59025;DHT22;44806;48.008;13.666;2023-02-17T15:30:47;13.60;93.70
59025;DHT22;44806;48.008;13.666;2023-02-17T15:33:18;13.50;93.60
59025;DHT22;44806;48.008;13.666;2023-02-17T15:35:46;13.50;93.90
59025;DHT22;44806;48.008;13.666;2023-02-17T15:38:18;13.40;93.80
59025;DHT22;44806;48.008;13.666;2023-02-17T15:40:45;13.50;93.70
59025;DHT22;44806;48.008;13.666;2023-02-17T15:43:13;13.50;93.80
59025;DHT22;44806;48.008;13.666;2023-02-17T15:45:42;13.40;94.00
59025;DHT22;44806;48.008;13.666;2023-02-17T15:48:10;13.40;94.70
59025;DHT22;44806;48.008;13.666;2023-02-17T15:50:38;13.30;95.50